createdAt,value
2022-08-28T00:04:16.171Z,98903.09
2022-08-28T00:09:20.852Z,98902.78
2022-08-28T00:14:24.412Z,98900.91
2022-08-28T00:19:27.671Z,98904.06
2022-08-28T00:24:32.060Z,98909.19
2022-08-28T00:29:35.080Z,98911.88
2022-08-28T00:34:38.817Z,98919.00
2022-08-28T00:39:43.165Z,98917.97
2022-08-28T00:44:47.474Z,98927.53
2022-08-28T00:49:54.044Z,98928.59
2022-08-28T00:55:01.236Z,98919.59
2022-08-28T01:00:07.673Z,98924.66
2022-08-28T01:05:10.924Z,98915.91
2022-08-28T01:10:21.999Z,98921.19
2022-08-28T01:15:28.593Z,98923.06
2022-08-28T01:20:35.118Z,98920.13
2022-08-28T01:25:40.900Z,98922.78
2022-08-28T01:30:46.875Z,98933.69
2022-08-28T01:35:49.968Z,98932.31
2022-08-28T01:40:57.254Z,98931.28
2022-08-28T01:46:02.271Z,98937.63
2022-08-28T01:51:06.683Z,98941.38
2022-08-28T01:56:13.783Z,98941.66
2022-08-28T02:01:18.750Z,98940.81
2022-08-28T02:06:21.845Z,98954.09
2022-08-28T02:11:26.496Z,98950.38
2022-08-28T02:16:30.639Z,98950.91
2022-08-28T02:21:33.607Z,98951.44
2022-08-28T02:26:37.988Z,98959.41
2022-08-28T02:31:40.991Z,98949.34
2022-08-28T02:36:44.330Z,98954.09
2022-08-28T02:41:48.668Z,98959.69
2022-08-28T02:46:51.875Z,98960.22
2022-08-28T02:51:57.691Z,98959.16
2022-08-28T02:57:02.113Z,98949.88
2022-08-28T03:02:07.169Z,98954.13
2022-08-28T03:07:12.673Z,98955.69
2022-08-28T03:12:17.146Z,98959.16
2022-08-28T03:17:21.378Z,98958.63
2022-08-28T03:22:44.932Z,98963.66
2022-08-28T03:27:49.466Z,98957.03
2022-08-28T03:32:52.849Z,98955.16
2022-08-28T03:37:55.846Z,98947.22
2022-08-28T03:43:00.300Z,98957.56
2022-08-28T03:48:03.872Z,98954.09
2022-08-28T03:53:07.506Z,98961.25
2022-08-28T03:58:12.067Z,98966.03
2022-08-28T04:03:22.606Z,98966.31
2022-08-28T04:08:26.284Z,98967.88
2022-08-28T04:13:30.809Z,98982.75
2022-08-28T04:18:34.529Z,98987.81
2022-08-28T04:23:39.295Z,98990.72
2022-08-28T04:28:43.908Z,98996.00
2022-08-28T04:33:46.896Z,98992.31
2022-08-28T04:38:50.691Z,99005.84
2022-08-28T04:43:57.221Z,99001.09
2022-08-28T04:49:00.519Z,99001.84
2022-08-28T04:54:04.482Z,99008.16
2022-08-28T04:59:09.611Z,99009.28
2022-08-28T05:04:13.583Z,99013.00
2022-08-28T05:09:21.089Z,99017.78
2022-08-28T05:14:25.413Z,99021.69
2022-08-28T05:19:29.348Z,99018.56
2022-08-28T05:24:32.328Z,99023.59
2022-08-28T05:29:36.667Z,99031.69
2022-08-28T05:34:39.672Z,99034.16
2022-08-28T05:39:42.604Z,99040.38
2022-08-28T05:44:46.976Z,99051.19
2022-08-28T05:49:49.971Z,99068.25
2022-08-28T05:54:55.367Z,99066.41
2022-08-28T06:00:00.116Z,99079.41
2022-08-28T06:05:03.414Z,99080.19
2022-08-28T06:10:07.548Z,99082.06
2022-08-28T06:15:15.925Z,99088.22
2022-08-28T06:20:19.346Z,99091.47
2022-08-28T06:25:22.320Z,99096.75
2022-08-28T06:30:26.838Z,99093.81
2022-08-28T06:35:34.389Z,99093.41
2022-08-28T06:40:41.927Z,99092.16
2022-08-28T06:45:50.320Z,99096.41
2022-08-28T06:50:55.018Z,99099.06
2022-08-28T06:56:00.347Z,99109.13
2022-08-28T07:01:08.677Z,99120.28
2022-08-28T07:06:13.977Z,99121.59
2022-08-28T07:11:19.911Z,99124.88
2022-08-28T07:16:26.839Z,99123.88
2022-08-28T07:21:35.333Z,99126.56
2022-08-28T07:26:43.565Z,99120.38
2022-08-28T07:31:51.213Z,99126.06
2022-08-28T07:36:54.497Z,99128.25
2022-08-28T07:41:57.486Z,99136.78
2022-08-28T07:47:04.253Z,99142.25
2022-08-28T07:52:08.896Z,99148.38
2022-08-28T07:57:12.016Z,99148.66
2022-08-28T08:02:16.586Z,99154.16
2022-08-28T08:07:20.517Z,99156.97
2022-08-28T08:12:23.854Z,99155.88
2022-08-28T08:17:29.760Z,99154.88
2022-08-28T08:22:33.141Z,99153.25
2022-08-28T08:27:41.030Z,99154.34
2022-08-28T08:32:47.266Z,99159.06
2022-08-28T08:37:50.229Z,99160.91
2022-08-28T08:42:57.196Z,99170.13
2022-08-28T08:48:02.227Z,99169.25
2022-08-28T08:53:29.318Z,99171.88
2022-08-28T08:58:36.259Z,99174.41
2022-08-28T09:03:54.507Z,99175.13
2022-08-28T09:09:02.799Z,99174.84
2022-08-28T09:14:12.803Z,99179.56
2022-08-28T09:19:21.023Z,99183.97
2022-08-28T09:24:26.701Z,99184.44
2022-08-28T09:29:33.000Z,99179.25
2022-08-28T09:34:39.252Z,99182.22
2022-08-28T09:39:45.542Z,99182.13
2022-08-28T09:44:56.366Z,99180.38
2022-08-28T09:50:17.245Z,99185.50
2022-08-28T09:55:26.604Z,99185.22
2022-08-28T10:00:35.137Z,99183.91
2022-08-28T10:05:47.944Z,99186.25
2022-08-28T10:10:57.443Z,99187.44
2022-08-28T10:16:18.522Z,99183.53
2022-08-28T10:21:30.645Z,99188.28
2022-08-28T10:26:40.728Z,99189.50
2022-08-28T10:31:52.832Z,99195.06
2022-08-28T10:37:05.390Z,99199.94
2022-08-28T10:42:09.163Z,99197.56
2022-08-28T10:47:14.025Z,99190.50
2022-08-28T10:52:25.248Z,99197.09
2022-08-28T10:57:39.254Z,99193.38
2022-08-28T11:02:47.056Z,99198.16
2022-08-28T11:07:55.341Z,99197.38
2022-08-28T11:12:58.697Z,99197.22
2022-08-28T11:18:37.933Z,99191.16
2022-08-28T11:23:50.738Z,99190.13
2022-08-28T11:28:53.752Z,99191.38
2022-08-28T11:33:59.077Z,99207.47
2022-08-28T11:39:20.593Z,99212.28
2022-08-28T11:44:42.703Z,99219.41
2022-08-28T11:49:46.607Z,99218.28
2022-08-28T11:55:02.035Z,99223.69
2022-08-28T12:00:11.563Z,99211.66
2022-08-28T12:05:44.328Z,99217.97
2022-08-28T12:10:59.804Z,99213.81
2022-08-28T12:16:07.621Z,99216.38
2022-08-28T12:21:17.456Z,99225.03
2022-08-28T12:26:26.427Z,99215.31
2022-08-28T12:32:10.520Z,99199.22
2022-08-28T12:37:51.634Z,99211.41
2022-08-28T12:43:00.225Z,99200.16
2022-08-28T12:48:09.797Z,99212.91
2022-08-28T12:53:16.478Z,99210.28
2022-08-28T12:58:32.184Z,99216.88
2022-08-28T13:03:35.744Z,99211.47
2022-08-28T13:08:39.071Z,99199.81
2022-08-28T13:13:48.668Z,99205.09
2022-08-28T13:18:56.462Z,99194.66
2022-08-28T13:24:40.431Z,99198.81
2022-08-28T13:29:57.452Z,99192.56
2022-08-28T13:35:19.635Z,99184.56
2022-08-28T13:40:55.826Z,99188.50
2022-08-28T13:45:50.784Z,99186.19
2022-08-28T13:50:57.871Z,99178.91
2022-08-28T13:56:01.675Z,99182.25
2022-08-28T14:01:06.412Z,99178.91
2022-08-28T14:06:12.378Z,99197.47
2022-08-28T14:11:17.097Z,99181.72
2022-08-28T14:16:21.520Z,99186.91
2022-08-28T14:21:25.305Z,99180.78
2022-08-28T14:26:28.958Z,99188.19
2022-08-28T14:31:33.750Z,99187.31
2022-08-28T14:36:37.985Z,99179.88
2022-08-28T14:41:44.349Z,99174.59
2022-08-28T14:46:57.177Z,99181.28
2022-08-28T14:52:00.579Z,99186.34
2022-08-28T14:57:03.860Z,99173.34
2022-08-28T15:02:09.429Z,99192.06
2022-08-28T15:07:13.512Z,99188.47
2022-08-28T15:12:16.840Z,99191.84
2022-08-28T15:17:23.267Z,99179.16
2022-08-28T15:22:37.117Z,99173.91
2022-08-28T15:27:40.567Z,99181.13
2022-08-28T15:32:47.436Z,99180.03
2022-08-28T15:37:51.426Z,99178.91
2022-08-28T15:42:54.429Z,99182.34
2022-08-28T15:47:59.715Z,99191.03
2022-08-28T15:53:02.952Z,99187.50
2022-08-28T15:58:13.700Z,99178.94
2022-08-28T16:03:18.480Z,99187.47
2022-08-28T16:08:21.520Z,99191.78
2022-08-28T16:13:24.559Z,99197.88
2022-08-28T16:18:29.064Z,99196.00
2022-08-28T16:23:32.527Z,99195.91
2022-08-28T16:28:36.533Z,99205.25
2022-08-28T16:33:42.822Z,99198.38
2022-08-28T16:38:49.531Z,99200.72
2022-08-28T16:44:02.973Z,99204.41
2022-08-28T16:49:07.501Z,99203.59
2022-08-28T16:54:10.796Z,99195.06
2022-08-28T16:59:16.529Z,99196.44
2022-08-28T17:04:21.684Z,99196.72
2022-08-28T17:09:24.719Z,99193.28
2022-08-28T17:14:28.282Z,99193.94
2022-08-28T17:19:32.641Z,99194.44
2022-08-28T17:24:35.806Z,99192.16
2022-08-28T17:29:39.355Z,99192.72
2022-08-28T17:34:43.752Z,99200.28
2022-08-28T17:39:46.802Z,99198.75
2022-08-28T17:44:49.882Z,99204.19
2022-08-28T17:49:54.930Z,99211.72
2022-08-28T17:54:58.090Z,99204.56
2022-08-28T18:00:05.250Z,99212.31
2022-08-28T18:05:30.158Z,99221.91
2022-08-28T18:10:35.112Z,99228.69
2022-08-28T18:15:38.219Z,99230.06
2022-08-28T18:20:43.137Z,99240.22
2022-08-28T18:25:50.846Z,99245.31
2022-08-28T18:30:55.260Z,99254.69
2022-08-28T18:35:59.804Z,99261.09
2022-08-28T18:41:03.605Z,99264.09
2022-08-28T18:46:08.939Z,99271.31
2022-08-28T18:51:13.741Z,99276.13
2022-08-28T18:56:18.823Z,99275.59
2022-08-28T19:01:23.450Z,99288.38
2022-08-28T19:06:28.155Z,99275.63
2022-08-28T19:11:31.510Z,99281.75
2022-08-28T19:16:35.403Z,99285.72
2022-08-28T19:21:40.001Z,99285.75
2022-08-28T19:26:43.066Z,99289.47
2022-08-28T19:31:46.206Z,99295.59
2022-08-28T19:36:50.977Z,99299.81
2022-08-28T19:41:54.512Z,99302.19
2022-08-28T19:46:57.592Z,99299.25
2022-08-28T19:52:03.034Z,99307.72
2022-08-28T19:57:06.689Z,99310.06
2022-08-28T20:02:10.119Z,99313.19
2022-08-28T20:07:14.494Z,99318.50
2022-08-28T20:12:17.661Z,99322.22
2022-08-28T20:17:20.701Z,99320.00
2022-08-28T20:22:25.183Z,99332.47
2022-08-28T20:27:29.661Z,99325.78
2022-08-28T20:32:33.068Z,99333.72
2022-08-28T20:37:44.731Z,99326.22
2022-08-28T20:42:49.313Z,99334.31
2022-08-28T20:47:52.352Z,99331.28
2022-08-28T20:52:56.761Z,99339.56
2022-08-28T20:57:59.761Z,99340.53
2022-08-28T21:03:02.726Z,99342.31
2022-08-28T21:09:00.415Z,99341.16
2022-08-28T21:14:03.420Z,99342.41
2022-08-28T21:19:15.863Z,99353.00
2022-08-28T21:24:21.101Z,99352.72
2022-08-28T21:29:24.681Z,99355.19
2022-08-28T21:34:27.927Z,99351.41
2022-08-28T21:39:32.303Z,99353.50
2022-08-28T21:44:35.291Z,99360.38
2022-08-28T21:49:38.928Z,99362.59
2022-08-28T21:54:43.389Z,99362.09
2022-08-28T21:59:46.368Z,99360.38
2022-08-28T22:04:49.610Z,99365.50
2022-08-28T22:09:54.004Z,99357.50
2022-08-28T22:14:57.069Z,99370.44
2022-08-28T22:20:00.080Z,99381.50
2022-08-28T22:25:05.590Z,99383.28
2022-08-28T22:30:09.571Z,99384.66
2022-08-28T22:35:12.596Z,99387.72
2022-08-28T22:40:17.470Z,99379.69
2022-08-28T22:45:21.528Z,99384.09
2022-08-28T22:50:24.730Z,99379.78
2022-08-28T22:55:29.305Z,99392.59
2022-08-28T23:00:33.308Z,99391.22
2022-08-28T23:05:36.364Z,99385.97
2022-08-28T23:10:57.985Z,99388.91
2022-08-28T23:16:02.560Z,99383.94
2022-08-28T23:21:08.461Z,99391.53
2022-08-28T23:26:14.135Z,99396.66
2022-08-28T23:31:17.110Z,99396.81
2022-08-28T23:36:20.066Z,99392.81
2022-08-28T23:41:24.341Z,99391.69
2022-08-28T23:46:27.471Z,99410.19
2022-08-28T23:51:31.073Z,99405.66
2022-08-28T23:56:35.557Z,99410.59
